Terminal Aerodrome Forecast
Issued by NWS Wilmington, OH

Current Version | Previous Version | Text Only | Print | Product List | Glossary Off
Versions: 1 2 3 4 5 6 7 8 9 10 11 12 13 14 15 16 17 18 19 20 21 22 23 24 25

360
FTUS41 KILN 222101 AAB
TAFCVG
TAF AMD
KCVG 222101Z 2221/2324 23007KT P6SM SCT020 BKN060
     FM230100 22003KT P6SM SCT250
      TEMPO 2308/2312 3SM BR
     FM231300 25005KT P6SM SCT250=

USA.gov is the U.S. government's official web portal to all federal, state and local government web resources and services.